Time;durP1;ratioP1;P1;durP2;ratioP2;P2;SDS_P1;SDS_P2;PMS_P1;PMS_P2;Temp;Humidity;BMP_temperature;BMP_pressure;BME280_temperature;BME280_humidity;BME280_pressure;Samples;Min_cycle;Max_cycle;Signal;HPM_P1;HPM_P2
2022/06/30 00:01:13;;;;;;;;;;;;;;;;;;2213939;67;1258;-53
2022/06/30 00:03:46;;;;;;;;;;;;;;;;;;2213073;67;1227;-53
2022/06/30 00:06:19;;;;;;;;;;;;;;;;;;2213879;67;1940;-53
2022/06/30 00:08:52;;;;;;;;;;;;;;;;;;2213289;66;1153;-53
2022/06/30 00:11:25;;;;;;;;;;;;;;;;;;2213911;59;1401;-53
2022/06/30 00:14:01;;;;;;;;;;;;;;;;;;2213422;67;1254;-53
2022/06/30 00:16:35;;;;;;;;;;;;;;;;;;2213038;67;1159;-55
2022/06/30 00:19:08;;;;;;;;;;;;;;;;;;2213923;67;1249;-53
2022/06/30 00:21:41;;;;;;;;;;;;;;;;;;2212780;59;1112;-53
2022/06/30 00:24:14;;;;;;;;;;;;;;;;;;2213491;67;1226;-54
2022/06/30 00:26:47;;;;;;;;;;;;;;;;;;2209800;59;1972;-53
2022/06/30 00:29:23;;;;;;;;;;;;;;;;;;2213667;59;1244;-54
2022/06/30 00:31:56;;;;;;;;;;;;;;;;;;2213001;59;2046;-53
2022/06/30 00:34:29;;;;;;;;;;;;;;;;;;2212825;67;1227;-54
2022/06/30 00:37:03;;;;;;;;;;;;;;;;;;2213184;67;1199;-54
2022/06/30 00:39:36;;;;;;;;;;;;;;;;;;2213467;67;1138;-53
2022/06/30 00:42:09;;;;;;;;;;;;;;;;;;2213382;59;2021;-53
2022/06/30 00:44:45;;;;;;;;;;;;;;;;;;2212778;67;1211;-53
2022/06/30 00:47:18;;;;;;;;;;;;;;;;;;2213401;67;1996;-53
2022/06/30 00:49:51;;;;;;;;;;;;;;;;;;2212965;67;1130;-57
2022/06/30 00:52:26;;;;;;;;;;;;;;;;;;2213240;67;1232;-55
2022/06/30 00:55:00;;;;;;;;;;;;;;;;;;2212998;67;1273;-52
2022/06/30 00:57:33;;;;;;;;;;;;;;;;;;2213092;67;1070;-54
2022/06/30 01:00:11;;;;;;;;;;;;;;;;;;2212849;67;1267;-53
2022/06/30 01:02:44;;;;;;;;;;;;;;;;;;2212731;67;1833;-53
2022/06/30 01:05:17;;;;;;;;;;;;;;;;;;2213255;59;1357;-53
2022/06/30 01:07:51;;;;;;;;;;;;;;;;;;2213228;67;1927;-53
2022/06/30 01:13:14;;;;;;;;;;;;;;;;;;2213242;59;1147;-55
2022/06/30 01:15:50;;;;;;;;;;;;;;;;;;2213095;67;1265;-52
2022/06/30 01:18:23;;;;;;;;;;;;;;;;;;2213403;67;1199;-57
2022/06/30 01:20:56;;;;;;;;;;;;;;;;;;2212984;59;1191;-53
2022/06/30 01:23:32;;;;;;;;;;;;;;;;;;2213272;67;1175;-52
2022/06/30 01:26:05;;;;;;;;;;;;;;;;;;2213085;59;1992;-53
2022/06/30 01:28:38;;;;;;;;;;;;;;;;;;2213526;59;1220;-53
2022/06/30 01:31:11;;;;;;;;;;;;;;;;;;2213094;66;1996;-53
2022/06/30 01:33:45;;;;;;;;;;;;;;;;;;2212156;67;1128;-54
2022/06/30 01:36:18;;;;;;;;;;;;;;;;;;2213127;67;1243;-54
2022/06/30 01:38:54;;;;;;;;;;;;;;;;;;2212709;67;1177;-53
2022/06/30 01:41:27;;;;;;;;;;;;;;;;;;2212750;67;2062;-53
2022/06/30 01:44:00;;;;;;;;;;;;;;;;;;2213264;67;1220;-55
2022/06/30 01:46:33;;;;;;;;;;;;;;;;;;2212505;67;1932;-53
2022/06/30 01:49:06;;;;;;;;;;;;;;;;;;2213355;67;1220;-53
2022/06/30 01:51:39;;;;;;;;;;;;;;;;;;2212727;67;1131;-52
2022/06/30 01:54:15;;;;;;;;;;;;;;;;;;2213216;67;1141;-53
2022/06/30 01:56:48;;;;;;;;;;;;;;;;;;2212892;67;1313;-53
2022/06/30 01:59:22;;;;;;;;;;;;;;;;;;2212756;67;1236;-53
2022/06/30 02:01:55;;;;;;;;;;;;;;;;;;2212416;67;1230;-55
2022/06/30 02:07:23;;;;;;;;;;;;;;;;;;2209280;66;2368;-53
2022/06/30 02:09:59;;;;;;;;;;;;;;;;;;2212747;67;1150;-53
2022/06/30 02:12:51;;;;;;;;;;;;;;;;;;2212909;59;1331;-55
2022/06/30 02:15:28;;;;;;;;;;;;;;;;;;2213066;67;1245;-55
2022/06/30 02:18:02;;;;;;;;;;;;;;;;;;2212776;67;1227;-53
2022/06/30 02:20:36;;;;;;;;;;;;;;;;;;2212941;67;1123;-53
2022/06/30 02:23:09;;;;;;;;;;;;;;;;;;2212999;67;1211;-53
2022/06/30 02:25:45;;;;;;;;;;;;;;;;;;2212182;59;1195;-53
2022/06/30 02:28:18;;;;;;;;;;;;;;;;;;2213819;59;1923;-53
2022/06/30 02:30:51;;;;;;;;;;;;;;;;;;2211616;59;2010;-52
2022/06/30 02:33:24;;;;;;;;;;;;;;;;;;2211404;67;1238;-53
2022/06/30 02:35:58;;;;;;;;;;;;;;;;;;2212847;67;1279;-53
2022/06/30 02:38:31;;;;;;;;;;;;;;;;;;2212801;59;1304;-53
2022/06/30 02:41:07;;;;;;;;;;;;;;;;;;2213001;59;2010;-55
2022/06/30 02:43:40;;;;;;;;;;;;;;;;;;2212738;67;1121;-52
2022/06/30 02:46:13;;;;;;;;;;;;;;;;;;2212889;67;1238;-53
2022/06/30 02:48:46;;;;;;;;;;;;;;;;;;2212623;67;1996;-53
2022/06/30 02:51:19;;;;;;;;;;;;;;;;;;2212972;67;1287;-54
2022/06/30 02:53:52;;;;;;;;;;;;;;;;;;2212511;67;1266;-54
2022/06/30 02:56:28;;;;;;;;;;;;;;;;;;2212773;67;1269;-53
2022/06/30 02:59:01;;;;;;;;;;;;;;;;;;2212642;67;1263;-52
2022/06/30 03:01:35;;;;;;;;;;;;;;;;;;2213425;67;1207;-53
2022/06/30 03:04:08;;;;;;;;;;;;;;;;;;2212223;59;2513;-53
2022/06/30 03:06:41;;;;;;;;;;;;;;;;;;2212319;59;1932;-53
2022/06/30 03:09:14;;;;;;;;;;;;;;;;;;2213055;59;1588;-53
2022/06/30 03:11:50;;;;;;;;;;;;;;;;;;2213358;59;1374;-54
2022/06/30 03:14:23;;;;;;;;;;;;;;;;;;2212872;67;1225;-52
2022/06/30 03:16:57;;;;;;;;;;;;;;;;;;2212547;67;1267;-53
2022/06/30 03:19:30;;;;;;;;;;;;;;;;;;2213107;67;1441;-54
2022/06/30 03:22:03;;;;;;;;;;;;;;;;;;2212654;59;1309;-54
2022/06/30 03:24:36;;;;;;;;;;;;;;;;;;2212429;59;1547;-53
2022/06/30 03:27:12;;;;;;;;;;;;;;;;;;2212825;67;1933;-53
2022/06/30 03:29:45;;;;;;;;;;;;;;;;;;2212349;59;1588;-53
2022/06/30 03:32:18;;;;;;;;;;;;;;;;;;2213101;59;2105;-55
2022/06/30 03:34:51;;;;;;;;;;;;;;;;;;2212315;67;1271;-52
2022/06/30 03:37:24;;;;;;;;;;;;;;;;;;2211890;59;1339;-53
2022/06/30 03:39:58;;;;;;;;;;;;;;;;;;2213091;67;1223;-53
2022/06/30 03:42:33;;;;;;;;;;;;;;;;;;2212543;59;2078;-53
2022/06/30 03:45:07;;;;;;;;;;;;;;;;;;2212522;67;1266;-53
2022/06/30 03:47:40;;;;;;;;;;;;;;;;;;2212730;67;1933;-55
2022/06/30 03:50:13;;;;;;;;;;;;;;;;;;2213004;67;1143;-53
2022/06/30 03:52:47;;;;;;;;;;;;;;;;;;2213102;67;1068;-53
2022/06/30 03:55:20;;;;;;;;;;;;;;;;;;2213270;67;1235;-53
2022/06/30 03:57:56;;;;;;;;;;;;;;;;;;2213375;67;1229;-53
2022/06/30 04:00:31;;;;;;;;;;;;;;;;;;2213617;67;1087;-53
2022/06/30 04:03:04;;;;;;;;;;;;;;;;;;2213849;67;1001;-53
2022/06/30 04:05:38;;;;;;;;;;;;;;;;;;2212958;67;1220;-53
2022/06/30 04:08:11;;;;;;;;;;;;;;;;;;2213388;67;1930;-54
2022/06/30 04:10:44;;;;;;;;;;;;;;;;;;2213197;59;1426;-52
2022/06/30 04:13:21;;;;;;;;;;;;;;;;;;2213490;59;1381;-53
2022/06/30 04:15:54;;;;;;;;;;;;;;;;;;2213498;67;1234;-53
2022/06/30 04:18:27;;;;;;;;;;;;;;;;;;2213587;67;1156;-53
2022/06/30 04:21:00;;;;;;;;;;;;;;;;;;2213635;67;1243;-53
2022/06/30 04:23:33;;;;;;;;;;;;;;;;;;2212836;67;1216;-53
2022/06/30 04:26:06;;;;;;;;;;;;;;;;;;2212510;59;1278;-53
2022/06/30 04:28:42;;;;;;;;;;;;;;;;;;2213491;59;1988;-53
2022/06/30 04:34:04;;;;;;;;;;;;;;;;;;2213347;67;1248;-53
2022/06/30 04:36:37;;;;;;;;;;;;;;;;;;2213294;67;1258;-53
2022/06/30 04:39:10;;;;;;;;;;;;;;;;;;2213574;67;1160;-53
2022/06/30 04:41:41;;;;;;;;;;;;;;;;;;2213229;59;2017;-53
2022/06/30 04:44:17;;;;;;;;;;;;;;;;;;2213800;67;1290;-53
2022/06/30 04:46:50;;;;;;;;;;;;;;;;;;2213486;67;1377;-53
2022/06/30 04:49:29;;;;;;;;;;;;;;;;;;2213578;67;1926;-54
2022/06/30 04:52:02;;;;;;;;;;;;;;;;;;2213747;67;1157;-53
2022/06/30 04:54:35;;;;;;;;;;;;;;;;;;2213939;67;1231;-53
2022/06/30 04:57:08;;;;;;;;;;;;;;;;;;2213516;67;1210;-52
2022/06/30 04:59:44;;;;;;;;;;;;;;;;;;2213816;67;1309;-53
2022/06/30 05:02:17;;;;;;;;;;;;;;;;;;2214268;67;1206;-53
2022/06/30 05:04:51;;;;;;;;;;;;;;;;;;2213280;67;1203;-53
2022/06/30 05:07:24;;;;;;;;;;;;;;;;;;2213811;67;1928;-53
2022/06/30 05:09:57;;;;;;;;;;;;;;;;;;2213722;67;1285;-53
2022/06/30 05:12:30;;;;;;;;;;;;;;;;;;2213835;59;1448;-53
2022/06/30 05:15:06;;;;;;;;;;;;;;;;;;2213864;67;1731;-53
2022/06/30 05:17:40;;;;;;;;;;;;;;;;;;2213707;67;1104;-53
2022/06/30 05:20:13;;;;;;;;;;;;;;;;;;2213771;67;1192;-53
2022/06/30 05:22:46;;;;;;;;;;;;;;;;;;2213918;67;1227;-53
2022/06/30 05:28:09;;;;;;;;;;;;;;;;;;2213244;59;1931;-53
2022/06/30 05:30:45;;;;;;;;;;;;;;;;;;2213494;66;2087;-53
2022/06/30 05:33:19;;;;;;;;;;;;;;;;;;2213842;67;1236;-54
2022/06/30 05:35:53;;;;;;;;;;;;;;;;;;2213475;67;1280;-53
2022/06/30 05:38:26;;;;;;;;;;;;;;;;;;2213493;67;1230;-53
2022/06/30 05:40:59;;;;;;;;;;;;;;;;;;2213616;59;2034;-53
2022/06/30 05:43:33;;;;;;;;;;;;;;;;;;2213820;67;1101;-55
2022/06/30 05:46:08;;;;;;;;;;;;;;;;;;2213729;67;1253;-53
2022/06/30 05:48:41;;;;;;;;;;;;;;;;;;2213460;67;1935;-53
2022/06/30 05:51:15;;;;;;;;;;;;;;;;;;2213580;67;1115;-54
2022/06/30 05:53:48;;;;;;;;;;;;;;;;;;2213461;67;1167;-53
2022/06/30 05:56:21;;;;;;;;;;;;;;;;;;2213375;67;1298;-58
2022/06/30 05:58:54;;;;;;;;;;;;;;;;;;2213401;67;1097;-54
2022/06/30 06:01:30;;;;;;;;;;;;;;;;;;2213568;67;1197;-53
2022/06/30 06:04:03;;;;;;;;;;;;;;;;;;2213446;59;1381;-53
2022/06/30 06:06:36;;;;;;;;;;;;;;;;;;2213126;67;1281;-53
2022/06/30 06:09:09;;;;;;;;;;;;;;;;;;2213645;67;1989;-54
2022/06/30 06:11:43;;;;;;;;;;;;;;;;;;2212865;59;1437;-53
2022/06/30 06:14:16;;;;;;;;;;;;;;;;;;2213842;67;1214;-53
2022/06/30 06:16:52;;;;;;;;;;;;;;;;;;2212849;67;1275;-53
2022/06/30 06:19:25;;;;;;;;;;;;;;;;;;2213249;67;1172;-55
2022/06/30 06:21:58;;;;;;;;;;;;;;;;;;2213666;67;1242;-53
2022/06/30 06:24:31;;;;;;;;;;;;;;;;;;2212395;58;1720;-53
2022/06/30 06:27:04;;;;;;;;;;;;;;;;;;2213331;67;1212;-53
2022/06/30 06:29:38;;;;;;;;;;;;;;;;;;2213071;59;2002;-53
2022/06/30 06:32:14;;;;;;;;;;;;;;;;;;2212281;59;2029;-55
2022/06/30 06:34:47;;;;;;;;;;;;;;;;;;2212760;67;1215;-55
2022/06/30 06:37:20;;;;;;;;;;;;;;;;;;2213556;67;1187;-57
2022/06/30 06:39:53;;;;;;;;;;;;;;;;;;2213393;67;1235;-59
2022/06/30 06:42:26;;;;;;;;;;;;;;;;;;2213163;59;2112;-55
2022/06/30 06:44:59;;;;;;;;;;;;;;;;;;2213309;67;1218;-56
2022/06/30 06:47:36;;;;;;;;;;;;;;;;;;2212806;67;1183;-53
2022/06/30 06:50:09;;;;;;;;;;;;;;;;;;2212819;67;1935;-53
2022/06/30 06:52:42;;;;;;;;;;;;;;;;;;2212416;59;1107;-55
2022/06/30 06:55:16;;;;;;;;;;;;;;;;;;2213482;67;1302;-53
2022/06/30 06:57:49;;;;;;;;;;;;;;;;;;2212625;67;1206;-54
2022/06/30 07:00:22;;;;;;;;;;;;;;;;;;2212493;67;1230;-54
2022/06/30 07:02:58;;;;;;;;;;;;;;;;;;2212941;67;1240;-54
2022/06/30 07:05:31;;;;;;;;;;;;;;;;;;2212593;59;1636;-56
2022/06/30 07:08:04;;;;;;;;;;;;;;;;;;2212821;67;1933;-53
2022/06/30 07:10:37;;;;;;;;;;;;;;;;;;2212403;58;2273;-53
2022/06/30 07:13:11;;;;;;;;;;;;;;;;;;2212986;59;1244;-53
2022/06/30 07:15:44;;;;;;;;;;;;;;;;;;2212771;67;1229;-53
2022/06/30 07:18:20;;;;;;;;;;;;;;;;;;2212209;67;1200;-53
2022/06/30 07:20:53;;;;;;;;;;;;;;;;;;2212227;59;1196;-53
2022/06/30 07:23:26;;;;;;;;;;;;;;;;;;2213167;67;1127;-54
2022/06/30 07:26:00;;;;;;;;;;;;;;;;;;2212880;59;1237;-53
2022/06/30 07:28:34;;;;;;;;;;;;;;;;;;2213668;67;1921;-53
2022/06/30 07:31:08;;;;;;;;;;;;;;;;;;2212728;59;1950;-53
2022/06/30 07:33:44;;;;;;;;;;;;;;;;;;2212328;59;1296;-57
2022/06/30 07:36:18;;;;;;;;;;;;;;;;;;2213818;67;1282;-56
2022/06/30 07:38:52;;;;;;;;;;;;;;;;;;2213193;67;1096;-54
2022/06/30 07:41:25;;;;;;;;;;;;;;;;;;2214307;59;2027;-54
2022/06/30 07:43:58;;;;;;;;;;;;;;;;;;2213810;67;1231;-53
2022/06/30 07:46:31;;;;;;;;;;;;;;;;;;2213405;67;1260;-57
2022/06/30 07:49:07;;;;;;;;;;;;;;;;;;2213853;67;1999;-58
2022/06/30 07:51:41;;;;;;;;;;;;;;;;;;2212800;67;1087;-58
2022/06/30 07:54:14;;;;;;;;;;;;;;;;;;2213445;67;1136;-59
2022/06/30 07:56:47;;;;;;;;;;;;;;;;;;2213905;67;1187;-55
2022/06/30 07:59:20;;;;;;;;;;;;;;;;;;2213532;67;1198;-55
2022/06/30 08:01:53;;;;;;;;;;;;;;;;;;2213945;67;1151;-55
2022/06/30 08:04:29;;;;;;;;;;;;;;;;;;2213803;59;1319;-54
2022/06/30 08:07:03;;;;;;;;;;;;;;;;;;2213051;66;1623;-53
2022/06/30 08:09:36;;;;;;;;;;;;;;;;;;2213227;67;1932;-54
2022/06/30 08:12:11;;;;;;;;;;;;;;;;;;2213657;59;1348;-54
2022/06/30 08:14:45;;;;;;;;;;;;;;;;;;2213308;67;1216;-56
2022/06/30 08:17:18;;;;;;;;;;;;;;;;;;2213876;67;1148;-55
2022/06/30 08:19:54;;;;;;;;;;;;;;;;;;2213583;67;1185;-54
2022/06/30 08:22:27;;;;;;;;;;;;;;;;;;2213853;67;1198;-56
2022/06/30 08:25:00;;;;;;;;;;;;;;;;;;2213349;59;1306;-54
2022/06/30 08:27:33;;;;;;;;;;;;;;;;;;2213615;59;1208;-54
2022/06/30 08:30:07;;;;;;;;;;;;;;;;;;2213554;66;1928;-58
2022/06/30 08:32:40;;;;;;;;;;;;;;;;;;2212577;67;1205;-54
2022/06/30 08:35:17;;;;;;;;;;;;;;;;;;2213676;67;1257;-56
2022/06/30 08:37:50;;;;;;;;;;;;;;;;;;2213161;67;1140;-55
2022/06/30 08:43:14;;;;;;;;;;;;;;;;;;2213192;67;1133;-54
2022/06/30 08:45:47;;;;;;;;;;;;;;;;;;2213591;67;1194;-57
2022/06/30 08:48:21;;;;;;;;;;;;;;;;;;2213922;67;1148;-54
2022/06/30 08:51:00;;;;;;;;;;;;;;;;;;2213293;67;1984;-56
2022/06/30 08:53:39;;;;;;;;;;;;;;;;;;2213437;67;1138;-57
2022/06/30 08:56:12;;;;;;;;;;;;;;;;;;2213701;67;1238;-57
2022/06/30 08:58:46;;;;;;;;;;;;;;;;;;2212827;67;1099;-56
2022/06/30 09:01:20;;;;;;;;;;;;;;;;;;2213803;67;1182;-55
2022/06/30 09:03:53;;;;;;;;;;;;;;;;;;2213123;59;1295;-55
2022/06/30 09:06:29;;;;;;;;;;;;;;;;;;2213070;67;1266;-55
2022/06/30 09:09:02;;;;;;;;;;;;;;;;;;2213097;67;1937;-54
2022/06/30 09:11:49;;;;;;;;;;;;;;;;;;2212972;59;1381;-54
2022/06/30 09:14:35;;;;;;;;;;;;;;;;;;2213412;67;1202;-55
2022/06/30 09:17:09;;;;;;;;;;;;;;;;;;2213299;67;1286;-54
2022/06/30 09:19:57;;;;;;;;;;;;;;;;;;2213357;67;1146;-56
2022/06/30 09:22:35;;;;;;;;;;;;;;;;;;2212951;67;1178;-55
2022/06/30 09:25:09;;;;;;;;;;;;;;;;;;2212833;59;1234;-55
2022/06/30 09:27:44;;;;;;;;;;;;;;;;;;2213154;67;1405;-54
2022/06/30 09:30:21;;;;;;;;;;;;;;;;;;2213460;59;2046;-55
2022/06/30 09:32:55;;;;;;;;;;;;;;;;;;2212173;67;1239;-55
2022/06/30 09:35:30;;;;;;;;;;;;;;;;;;2213844;67;1271;-56
2022/06/30 09:38:07;;;;;;;;;;;;;;;;;;2213119;67;1231;-58
2022/06/30 09:41:00;;;;;;;;;;;;;;;;;;2213151;59;2005;-54
2022/06/30 09:43:34;;;;;;;;;;;;;;;;;;2213515;59;1290;-56
2022/06/30 09:46:08;;;;;;;;;;;;;;;;;;2213182;67;1219;-56
2022/06/30 09:48:42;;;;;;;;;;;;;;;;;;2213350;67;1107;-54
2022/06/30 09:51:15;;;;;;;;;;;;;;;;;;2213279;67;1968;-57
2022/06/30 09:54:11;;;;;;;;;;;;;;;;;;2213152;67;1138;-56
2022/06/30 09:56:44;;;;;;;;;;;;;;;;;;2213016;67;1200;-56
2022/06/30 09:59:26;;;;;;;;;;;;;;;;;;2212831;67;1552;-56
2022/06/30 10:01:59;;;;;;;;;;;;;;;;;;2213753;67;1300;-54
2022/06/30 10:04:32;;;;;;;;;;;;;;;;;;2213151;59;1227;-54
2022/06/30 10:07:05;;;;;;;;;;;;;;;;;;2212069;67;1210;-55
2022/06/30 10:09:41;;;;;;;;;;;;;;;;;;2212913;67;1941;-54
2022/06/30 10:12:15;;;;;;;;;;;;;;;;;;2213200;59;1429;-55
2022/06/30 10:14:49;;;;;;;;;;;;;;;;;;2213222;67;1201;-56
2022/06/30 10:17:24;;;;;;;;;;;;;;;;;;2212818;67;1232;-56
2022/06/30 10:19:58;;;;;;;;;;;;;;;;;;2212965;67;1947;-56
2022/06/30 10:22:31;;;;;;;;;;;;;;;;;;2213066;67;1132;-54
2022/06/30 10:25:08;;;;;;;;;;;;;;;;;;2213203;59;1765;-54
2022/06/30 10:27:41;;;;;;;;;;;;;;;;;;2213958;59;1338;-56
2022/06/30 10:30:16;;;;;;;;;;;;;;;;;;2214202;59;1980;-56
2022/06/30 10:32:56;;;;;;;;;;;;;;;;;;2213545;67;1260;-56
2022/06/30 10:35:31;;;;;;;;;;;;;;;;;;2214288;67;1224;-57
2022/06/30 10:38:08;;;;;;;;;;;;;;;;;;2213732;60;1215;-56
2022/06/30 10:40:49;;;;;;;;;;;;;;;;;;2214000;59;2022;-54
2022/06/30 10:43:22;;;;;;;;;;;;;;;;;;2213863;67;1190;-57
2022/06/30 10:45:57;;;;;;;;;;;;;;;;;;2213575;59;1254;-54
2022/06/30 10:48:45;;;;;;;;;;;;;;;;;;2213558;67;1130;-55
2022/06/30 10:51:19;;;;;;;;;;;;;;;;;;2213417;67;2902;-55
2022/06/30 10:53:56;;;;;;;;;;;;;;;;;;2213146;67;1191;-55
2022/06/30 10:56:44;;;;;;;;;;;;;;;;;;2213652;67;1230;-56
2022/06/30 10:59:28;;;;;;;;;;;;;;;;;;2213582;67;2881;-56
2022/06/30 11:02:20;;;;;;;;;;;;;;;;;;2213341;67;1124;-63
2022/06/30 11:04:54;;;;;;;;;;;;;;;;;;2214186;59;1299;-61
2022/06/30 11:07:27;;;;;;;;;;;;;;;;;;2225824;66;1139;-56
2022/06/30 11:10:00;;;;;;;;;;;;;;;;;;2226511;59;1919;-55
2022/06/30 11:12:52;;;;;;;;;;;;;;;;;;2227159;59;1147;-55
2022/06/30 11:15:48;;;;;;;;;;;;;;;;;;2226658;67;1176;-57
2022/06/30 11:18:22;;;;;;;;;;;;;;;;;;2220269;67;1131;-57
2022/06/30 11:20:56;;;;;;;;;;;;;;;;;;2213717;67;1208;-56
2022/06/30 11:23:30;;;;;;;;;;;;;;;;;;2213966;67;1097;-56
2022/06/30 11:28:53;;;;;;;;;;;;;;;;;;2209878;59;1311;-74
2022/06/30 11:31:29;;;;;;;;;;;;;;;;;;2209360;59;1946;-73
2022/06/30 11:34:08;;;;;;;;;;;;;;;;;;2209937;67;1173;-74
2022/06/30 11:36:42;;;;;;;;;;;;;;;;;;2209691;59;1067;-75
2022/06/30 11:39:17;;;;;;;;;;;;;;;;;;2212976;53;2298;-66
2022/06/30 11:41:55;;;;;;;;;;;;;;;;;;2205472;59;1976;-66
2022/06/30 11:44:31;;;;;;;;;;;;;;;;;;2205411;67;1266;-66
2022/06/30 11:47:05;;;;;;;;;;;;;;;;;;2202850;59;1175;-65
2022/06/30 11:49:46;;;;;;;;;;;;;;;;;;2201238;67;1100;-65
2022/06/30 11:52:20;;;;;;;;;;;;;;;;;;2202165;67;1192;-65
2022/06/30 11:54:55;;;;;;;;;;;;;;;;;;2202191;67;1105;-66
2022/06/30 11:57:29;;;;;;;;;;;;;;;;;;2201490;59;1250;-66
2022/06/30 12:00:03;;;;;;;;;;;;;;;;;;2203174;67;1219;-65
2022/06/30 12:02:37;;;;;;;;;;;;;;;;;;2198383;67;1568;-66
2022/06/30 12:05:14;;;;;;;;;;;;;;;;;;2204270;67;1273;-65
2022/06/30 12:07:48;;;;;;;;;;;;;;;;;;2202216;67;1172;-67
2022/06/30 12:10:24;;;;;;;;;;;;;;;;;;2202688;59;1982;-65
2022/06/30 12:12:58;;;;;;;;;;;;;;;;;;2200954;59;1291;-65
2022/06/30 12:15:31;;;;;;;;;;;;;;;;;;2201563;67;1227;-65
2022/06/30 12:18:06;;;;;;;;;;;;;;;;;;2202164;67;1090;-65
2022/06/30 12:20:43;;;;;;;;;;;;;;;;;;2202222;67;1038;-66
2022/06/30 12:23:16;;;;;;;;;;;;;;;;;;2201792;67;1207;-65
2022/06/30 12:25:50;;;;;;;;;;;;;;;;;;2201503;67;1235;-65
2022/06/30 12:28:23;;;;;;;;;;;;;;;;;;2201317;67;1219;-63
2022/06/30 12:30:56;;;;;;;;;;;;;;;;;;2202457;67;2756;-65
2022/06/30 12:33:39;;;;;;;;;;;;;;;;;;2202359;67;1135;-64
2022/06/30 12:36:18;;;;;;;;;;;;;;;;;;2201873;67;1219;-67
2022/06/30 12:38:52;;;;;;;;;;;;;;;;;;2201537;67;1299;-64
2022/06/30 12:41:25;;;;;;;;;;;;;;;;;;2203051;59;2127;-66
2022/06/30 12:43:58;;;;;;;;;;;;;;;;;;2202567;67;1228;-65
2022/06/30 12:46:40;;;;;;;;;;;;;;;;;;2201582;67;1314;-65
2022/06/30 12:49:22;;;;;;;;;;;;;;;;;;2201926;67;1342;-65
2022/06/30 12:51:58;;;;;;;;;;;;;;;;;;2201620;67;2054;-66
2022/06/30 12:54:31;;;;;;;;;;;;;;;;;;2201083;67;1264;-65
2022/06/30 12:57:06;;;;;;;;;;;;;;;;;;2202681;59;1279;-64
2022/06/30 12:59:48;;;;;;;;;;;;;;;;;;2201877;67;1145;-65
2022/06/30 13:02:21;;;;;;;;;;;;;;;;;;2202261;67;1240;-65
2022/06/30 13:04:56;;;;;;;;;;;;;;;;;;2201901;67;1284;-65
2022/06/30 13:07:32;;;;;;;;;;;;;;;;;;2202016;67;1282;-65
2022/06/30 13:10:05;;;;;;;;;;;;;;;;;;2202414;59;1384;-65
2022/06/30 13:12:38;;;;;;;;;;;;;;;;;;2201301;59;1945;-64
2022/06/30 13:15:12;;;;;;;;;;;;;;;;;;2202107;67;1220;-66
2022/06/30 13:17:46;;;;;;;;;;;;;;;;;;2202504;67;1307;-65
2022/06/30 13:20:19;;;;;;;;;;;;;;;;;;2201190;67;1149;-63
2022/06/30 13:22:55;;;;;;;;;;;;;;;;;;2201243;67;1153;-66
2022/06/30 13:25:29;;;;;;;;;;;;;;;;;;2201693;67;1209;-64
2022/06/30 13:28:02;;;;;;;;;;;;;;;;;;2202403;59;1273;-65
2022/06/30 13:30:35;;;;;;;;;;;;;;;;;;2201386;59;1930;-65
2022/06/30 13:33:08;;;;;;;;;;;;;;;;;;2201918;59;1288;-65
2022/06/30 13:35:41;;;;;;;;;;;;;;;;;;2201566;67;1188;-66
2022/06/30 13:38:17;;;;;;;;;;;;;;;;;;2202347;67;1177;-66
2022/06/30 13:40:50;;;;;;;;;;;;;;;;;;2201571;59;2138;-63
2022/06/30 13:43:24;;;;;;;;;;;;;;;;;;2202057;67;1138;-66
2022/06/30 13:45:57;;;;;;;;;;;;;;;;;;2201652;67;1246;-64
2022/06/30 13:48:30;;;;;;;;;;;;;;;;;;2201393;67;1149;-63
2022/06/30 13:51:03;;;;;;;;;;;;;;;;;;2202246;67;1931;-64
2022/06/30 13:53:39;;;;;;;;;;;;;;;;;;2201796;67;1211;-65
2022/06/30 13:56:13;;;;;;;;;;;;;;;;;;2202815;67;1258;-66
2022/06/30 13:58:46;;;;;;;;;;;;;;;;;;2201055;67;1172;-64
2022/06/30 14:01:19;;;;;;;;;;;;;;;;;;2203187;67;1190;-65
2022/06/30 14:03:52;;;;;;;;;;;;;;;;;;2202284;67;1220;-64
2022/06/30 14:06:25;;;;;;;;;;;;;;;;;;2202677;67;1268;-65
2022/06/30 14:09:01;;;;;;;;;;;;;;;;;;2201839;59;1263;-66
2022/06/30 14:11:34;;;;;;;;;;;;;;;;;;2201664;59;1991;-65
2022/06/30 14:14:08;;;;;;;;;;;;;;;;;;2202600;67;1281;-66
2022/06/30 14:16:41;;;;;;;;;;;;;;;;;;2201224;67;1213;-66
2022/06/30 14:19:17;;;;;;;;;;;;;;;;;;2201614;67;1229;-66
2022/06/30 14:21:50;;;;;;;;;;;;;;;;;;2201511;67;1235;-66
2022/06/30 14:24:26;;;;;;;;;;;;;;;;;;2201466;67;1196;-66
2022/06/30 14:27:00;;;;;;;;;;;;;;;;;;2201264;59;1279;-67
2022/06/30 14:29:33;;;;;;;;;;;;;;;;;;2201673;59;1558;-66
2022/06/30 14:32:07;;;;;;;;;;;;;;;;;;2201098;59;2040;-65
2022/06/30 14:34:40;;;;;;;;;;;;;;;;;;2201213;67;1116;-66
2022/06/30 14:37:13;;;;;;;;;;;;;;;;;;2201964;67;1208;-66
2022/06/30 14:39:49;;;;;;;;;;;;;;;;;;2200640;59;1184;-65
2022/06/30 14:45:13;;;;;;;;;;;;;;;;;;2201549;67;1033;-66
2022/06/30 14:47:47;;;;;;;;;;;;;;;;;;2201549;67;1145;-65
2022/06/30 14:50:20;;;;;;;;;;;;;;;;;;2202148;67;1232;-65
2022/06/30 14:52:54;;;;;;;;;;;;;;;;;;2202196;67;1979;-66
2022/06/30 14:55:30;;;;;;;;;;;;;;;;;;2200656;67;1211;-66
2022/06/30 14:58:03;;;;;;;;;;;;;;;;;;2203182;67;1268;-65
2022/06/30 15:00:38;;;;;;;;;;;;;;;;;;2202562;67;1173;-66
2022/06/30 15:03:11;;;;;;;;;;;;;;;;;;2202657;67;1154;-66
2022/06/30 15:05:45;;;;;;;;;;;;;;;;;;2201366;67;1227;-67
2022/06/30 15:08:18;;;;;;;;;;;;;;;;;;2202268;59;1364;-66
2022/06/30 15:10:54;;;;;;;;;;;;;;;;;;2200708;59;1428;-66
2022/06/30 15:13:27;;;;;;;;;;;;;;;;;;2201880;59;1980;-66
2022/06/30 15:16:00;;;;;;;;;;;;;;;;;;2201185;67;1219;-66
2022/06/30 15:18:34;;;;;;;;;;;;;;;;;;2201855;59;1999;-64
2022/06/30 15:24:08;;;;;;;;;;;;;;;;;;2201973;67;1181;-64
2022/06/30 15:26:44;;;;;;;;;;;;;;;;;;2200491;67;1183;-65
2022/06/30 15:29:18;;;;;;;;;;;;;;;;;;2202485;67;1236;-64
2022/06/30 15:31:58;;;;;;;;;;;;;;;;;;2200623;59;1967;-65
2022/06/30 15:34:32;;;;;;;;;;;;;;;;;;2201195;67;1241;-63
2022/06/30 15:37:05;;;;;;;;;;;;;;;;;;2202144;67;1144;-62
2022/06/30 15:39:38;;;;;;;;;;;;;;;;;;2201228;59;1208;-67
2022/06/30 15:42:15;;;;;;;;;;;;;;;;;;2202507;59;2039;-63
2022/06/30 15:44:49;;;;;;;;;;;;;;;;;;2202110;67;1236;-65
2022/06/30 15:47:25;;;;;;;;;;;;;;;;;;2200894;67;1229;-65
2022/06/30 15:49:59;;;;;;;;;;;;;;;;;;2202508;67;1334;-66
2022/06/30 15:52:32;;;;;;;;;;;;;;;;;;2203061;67;1933;-66
2022/06/30 15:55:05;;;;;;;;;;;;;;;;;;2201597;67;1271;-66
2022/06/30 15:57:42;;;;;;;;;;;;;;;;;;2202321;67;1153;-67
2022/06/30 16:00:15;;;;;;;;;;;;;;;;;;2202465;67;1285;-62
2022/06/30 16:02:48;;;;;;;;;;;;;;;;;;2201967;67;1347;-66
2022/06/30 16:05:22;;;;;;;;;;;;;;;;;;2201605;67;1240;-65
2022/06/30 16:07:55;;;;;;;;;;;;;;;;;;2198271;67;1832;-63
2022/06/30 16:10:28;;;;;;;;;;;;;;;;;;2201300;67;1301;-66
2022/06/30 16:13:04;;;;;;;;;;;;;;;;;;2202623;67;2288;-66
2022/06/30 16:15:37;;;;;;;;;;;;;;;;;;2201347;67;1239;-66
2022/06/30 16:18:11;;;;;;;;;;;;;;;;;;2202221;67;1250;-66
2022/06/30 16:20:44;;;;;;;;;;;;;;;;;;2201746;67;1209;-66
2022/06/30 16:23:18;;;;;;;;;;;;;;;;;;2202511;67;1128;-67
2022/06/30 16:25:51;;;;;;;;;;;;;;;;;;2201692;59;1426;-65
2022/06/30 16:28:27;;;;;;;;;;;;;;;;;;2203249;59;1263;-65
2022/06/30 16:31:00;;;;;;;;;;;;;;;;;;2203117;59;1927;-66
2022/06/30 16:33:33;;;;;;;;;;;;;;;;;;2203067;67;1931;-65
2022/06/30 16:36:07;;;;;;;;;;;;;;;;;;2202615;67;1255;-66
2022/06/30 16:38:40;;;;;;;;;;;;;;;;;;2201495;67;1230;-66
2022/06/30 16:41:13;;;;;;;;;;;;;;;;;;2204304;59;2011;-66
2022/06/30 16:43:49;;;;;;;;;;;;;;;;;;2203093;67;1031;-65
2022/06/30 16:46:22;;;;;;;;;;;;;;;;;;2203080;67;1252;-66
2022/06/30 16:48:56;;;;;;;;;;;;;;;;;;2203457;67;1266;-65
2022/06/30 16:51:29;;;;;;;;;;;;;;;;;;2204223;67;1267;-65
2022/06/30 16:54:02;;;;;;;;;;;;;;;;;;2203232;67;1980;-65
2022/06/30 16:56:35;;;;;;;;;;;;;;;;;;2202832;67;1237;-65
2022/06/30 16:59:13;;;;;;;;;;;;;;;;;;2204010;67;1185;-65
2022/06/30 17:01:46;;;;;;;;;;;;;;;;;;2202978;67;1143;-65
2022/06/30 17:04:19;;;;;;;;;;;;;;;;;;2203681;59;1232;-66
2022/06/30 17:06:52;;;;;;;;;;;;;;;;;;2202940;67;1267;-66
2022/06/30 17:09:26;;;;;;;;;;;;;;;;;;2201944;59;1369;-66
2022/06/30 17:11:59;;;;;;;;;;;;;;;;;;2200555;59;1988;-65
2022/06/30 17:14:35;;;;;;;;;;;;;;;;;;2203346;67;1192;-66
2022/06/30 17:17:08;;;;;;;;;;;;;;;;;;2202342;67;1222;-66
2022/06/30 17:19:42;;;;;;;;;;;;;;;;;;2202757;67;975;-66
2022/06/30 17:22:15;;;;;;;;;;;;;;;;;;2202966;67;1293;-66
2022/06/30 17:24:49;;;;;;;;;;;;;;;;;;2202931;67;1164;-66
2022/06/30 17:27:22;;;;;;;;;;;;;;;;;;2202162;59;1226;-66
2022/06/30 17:30:01;;;;;;;;;;;;;;;;;;2202301;67;1208;-66
2022/06/30 17:32:34;;;;;;;;;;;;;;;;;;2203346;67;2362;-65
2022/06/30 17:35:08;;;;;;;;;;;;;;;;;;2202600;67;1350;-66
2022/06/30 17:37:41;;;;;;;;;;;;;;;;;;2198288;67;1632;-65
2022/06/30 17:40:14;;;;;;;;;;;;;;;;;;2205815;53;3760;-73
2022/06/30 17:42:48;;;;;;;;;;;;;;;;;;2202150;59;1928;-74
2022/06/30 17:45:25;;;;;;;;;;;;;;;;;;2202455;67;1143;-74
2022/06/30 17:47:58;;;;;;;;;;;;;;;;;;2202285;67;1230;-73
2022/06/30 17:50:32;;;;;;;;;;;;;;;;;;2202219;59;2146;-73
2022/06/30 17:53:05;;;;;;;;;;;;;;;;;;2201827;59;1999;-73
2022/06/30 17:55:39;;;;;;;;;;;;;;;;;;2209988;53;2079;-53
2022/06/30 17:58:13;;;;;;;;;;;;;;;;;;2209959;59;1300;-54
2022/06/30 18:00:50;;;;;;;;;;;;;;;;;;2208922;67;1062;-54
2022/06/30 18:03:23;;;;;;;;;;;;;;;;;;2208818;59;1811;-59
2022/06/30 18:05:58;;;;;;;;;;;;;;;;;;2209137;60;1231;-53
2022/06/30 18:11:21;;;;;;;;;;;;;;;;;;2209634;59;1378;-55
2022/06/30 18:13:54;;;;;;;;;;;;;;;;;;2209450;67;2012;-53
2022/06/30 18:16:30;;;;;;;;;;;;;;;;;;2209144;67;1203;-56
2022/06/30 18:19:03;;;;;;;;;;;;;;;;;;2209451;67;1308;-55